Arnett, West Virginia
Current Conditions -  °F | °C
As of 2:51 AM on Saturday 01 Nov 2014 (Local Time) from KBKW Reporting Station
Light Snow Light Snow  
Wind Chill: 30°   Ceiling: 300
Heat Index: 35°   Visibility: 5mi
Dew Point: 33°   Wind: 6mph
Humidity: 92%   Direction: 340°NNW
Pressure: 29.79"   Gusts: NA
Location:  37.83°N, 81.43°W
Report Text: KBKW 010651Z AUTO 34005KT 5SM -SN BR OVC003 02/01 A2979 RMK AO2 RAE48SNB48 SLP100 P0004 I1000 T00170006 TSNO
Loading
Personal Weather Stations






























Interactive Weather Map
Tropical Storm Tracking
New forecast layout! Learn more

10-Day Weather Forecast

Advertisements
Track Severe Weather on mobile